Time;durP1;ratioP1;P1;durP2;ratioP2;P2;SDS_P1;SDS_P2;PMS_P1;PMS_P2;Temp;Humidity;BMP_temperature;BMP_pressure;BME280_temperature;BME280_humidity;BME280_pressure;Samples;Min_cycle;Max_cycle;Signal;HPM_P1;HPM_P2
2023/10/29 00:00:49;;;;;;;13.65;7.60;;;10.30;99.90;;;;;;5099278;28;20040;-79
2023/10/29 00:03:15;;;;;;;13.82;8.95;;;10.40;99.90;;;;;;5070459;28;1086184;-77
2023/10/29 00:05:41;;;;;;;17.02;8.57;;;10.40;99.90;;;;;;5095281;28;20079;-78
2023/10/29 00:08:10;;;;;;;14.82;9.30;;;10.40;99.90;;;;;;5102573;28;20105;-82
2023/10/29 00:10:36;;;;;;;17.70;10.80;;;10.40;99.90;;;;;;5107415;28;20047;-77
2023/10/29 00:13:02;;;;;;;18.17;11.93;;;10.40;99.90;;;;;;5074513;28;20040;-76
2023/10/29 00:15:28;;;;;;;18.02;11.63;;;10.40;99.90;;;;;;5081185;28;20082;-78
2023/10/29 00:17:54;;;;;;;14.20;9.65;;;10.40;99.90;;;;;;5096821;28;20048;-78
2023/10/29 00:20:20;;;;;;;14.15;9.60;;;10.40;99.90;;;;;;5090927;28;20028;-77
2023/10/29 00:22:45;;;;;;;13.80;9.40;;;10.40;99.90;;;;;;5097260;28;20554;-76
2023/10/29 00:25:11;;;;;;;22.27;12.02;;;10.40;99.90;;;;;;5097170;28;20037;-77
2023/10/29 00:27:36;;;;;;;15.48;11.02;;;10.50;99.90;;;;;;5092903;28;20397;-76
2023/10/29 00:30:03;;;;;;;17.88;11.32;;;10.50;99.90;;;;;;5076538;28;20036;-77
2023/10/29 00:32:28;;;;;;;17.85;10.30;;;10.50;99.90;;;;;;5091486;28;20051;-76
2023/10/29 00:34:59;;;;;;;21.27;12.15;;;10.50;99.90;;;;;;5072870;28;20048;-76
2023/10/29 00:37:25;;;;;;;22.73;13.13;;;10.50;99.90;;;;;;5101861;28;20048;-77
2023/10/29 00:39:50;;;;;;;19.13;12.85;;;10.50;99.90;;;;;;5088808;28;20048;-75
2023/10/29 00:42:16;;;;;;;24.95;13.80;;;10.50;99.90;;;;;;5082870;28;20068;-77
2023/10/29 00:44:42;;;;;;;15.10;11.85;;;10.50;99.90;;;;;;5086938;28;20102;-76
2023/10/29 00:47:08;;;;;;;26.33;14.90;;;10.50;99.90;;;;;;5092691;28;20405;-75
2023/10/29 00:49:35;;;;;;;23.40;13.43;;;10.60;99.90;;;;;;5076265;28;20040;-77
2023/10/29 00:52:02;;;;;;;17.73;12.82;;;10.50;99.90;;;;;;5075556;28;20072;-77
2023/10/29 00:54:28;;;;;;;22.15;15.68;;;10.60;99.90;;;;;;5089129;28;20043;-77
2023/10/29 00:56:54;;;;;;;31.30;16.52;;;10.60;99.90;;;;;;5075831;28;20461;-77
2023/10/29 00:59:25;;;;;;;17.52;12.15;;;10.50;99.90;;;;;;5091639;28;20036;-77
2023/10/29 01:01:50;;;;;;;24.65;14.13;;;10.50;99.90;;;;;;5086216;28;20037;-75
2023/10/29 01:04:16;;;;;;;18.48;13.93;;;10.60;99.90;;;;;;5098571;28;20465;-77
2023/10/29 01:06:44;;;;;;;16.95;11.13;;;10.60;99.90;;;;;;5095137;28;20045;-76
2023/10/29 01:09:11;;;;;;;23.17;11.40;;;10.60;99.90;;;;;;5091481;28;20051;-77
2023/10/29 01:11:40;;;;;;;21.85;13.65;;;10.60;99.90;;;;;;5083570;28;20040;-77
2023/10/29 01:14:12;;;;;;;22.63;12.77;;;10.60;99.90;;;;;;5093909;28;20048;-77
2023/10/29 01:16:39;;;;;;;20.55;13.82;;;10.50;99.90;;;;;;5093956;28;20054;-76
2023/10/29 01:19:04;;;;;;;15.57;11.45;;;10.60;99.90;;;;;;5076124;28;20367;-76
2023/10/29 01:21:31;;;;;;;19.85;13.07;;;10.60;99.90;;;;;;5084454;28;20043;-77
2023/10/29 01:23:57;;;;;;;22.45;13.77;;;10.70;99.90;;;;;;5092049;28;20508;-77
2023/10/29 01:26:22;;;;;;;21.20;13.65;;;10.60;99.90;;;;;;5084912;28;20040;-76
2023/10/29 01:28:48;;;;;;;18.95;12.40;;;10.60;99.90;;;;;;5084824;28;20055;-77
2023/10/29 01:31:14;;;;;;;25.80;15.52;;;10.70;99.90;;;;;;5084742;28;20040;-76
2023/10/29 01:33:39;;;;;;;23.13;13.77;;;10.70;99.90;;;;;;5076028;28;20119;-76
2023/10/29 01:36:06;;;;;;;32.15;16.92;;;10.90;99.90;;;;;;5089660;28;20132;-78
2023/10/29 01:38:32;;;;;;;19.25;13.60;;;10.80;99.90;;;;;;5081721;28;20054;-77
2023/10/29 01:40:58;;;;;;;17.45;12.95;;;10.80;99.90;;;;;;5083118;28;20051;-77
2023/10/29 01:43:24;;;;;;;28.65;16.67;;;10.80;99.90;;;;;;5086133;28;20108;-77
2023/10/29 01:45:52;;;;;;;21.00;14.10;;;10.80;99.90;;;;;;5103189;27;20432;-78
2023/10/29 01:48:19;;;;;;;20.30;14.80;;;10.80;99.90;;;;;;5099704;28;20036;-79
2023/10/29 01:50:46;;;;;;;31.00;18.02;;;10.90;99.90;;;;;;5081558;28;20464;-77
2023/10/29 01:53:11;;;;;;;24.92;14.70;;;11.00;99.90;;;;;;5077563;28;20037;-78
2023/10/29 01:55:37;;;;;;;23.10;15.52;;;11.10;99.90;;;;;;5096638;28;20032;-76
2023/10/29 01:58:03;;;;;;;18.52;13.77;;;10.90;99.90;;;;;;5101182;28;20043;-77
2023/10/29 02:00:29;;;;;;;17.58;13.63;;;10.90;99.90;;;;;;5098090;28;20168;-78
2023/10/29 02:02:54;;;;;;;17.13;12.02;;;10.90;99.90;;;;;;5099634;28;20060;-78
2023/10/29 02:05:20;;;;;;;11.95;10.48;;;10.90;99.90;;;;;;5091479;28;20055;-78
2023/10/29 02:07:46;;;;;;;15.55;10.70;;;11.10;99.90;;;;;;5077040;28;20072;-78
2023/10/29 02:10:11;;;;;;;15.60;12.13;;;11.10;99.90;;;;;;5085866;28;20075;-77
2023/10/29 02:12:37;;;;;;;17.55;11.57;;;11.20;99.90;;;;;;5077842;28;20032;-77
2023/10/29 02:15:04;;;;;;;17.15;13.73;;;11.10;99.90;;;;;;5083660;28;20123;-78
2023/10/29 02:17:30;;;;;;;23.73;15.00;;;11.20;99.90;;;;;;5073022;28;20051;-77
2023/10/29 02:19:57;;;;;;;13.13;10.20;;;11.20;99.90;;;;;;5097444;28;20040;-78
2023/10/29 02:22:29;;;;;;;20.48;14.50;;;11.20;99.90;;;;;;5116650;27;20040;-77
2023/10/29 02:24:55;;;;;;;19.75;12.65;;;11.30;99.90;;;;;;5093236;28;20498;-77
2023/10/29 02:27:22;;;;;;;14.60;10.30;;;11.30;99.90;;;;;;5088410;28;20044;-78
2023/10/29 02:29:47;;;;;;;11.60;9.55;;;11.30;99.90;;;;;;5095933;28;20097;-76
2023/10/29 02:32:13;;;;;;;16.60;11.02;;;11.70;99.90;;;;;;5098851;28;20043;-78
2023/10/29 02:34:39;;;;;;;15.73;11.68;;;11.50;99.90;;;;;;5081559;28;20029;-78
2023/10/29 02:37:05;;;;;;;13.77;10.82;;;11.50;99.90;;;;;;5085161;28;20060;-78
2023/10/29 02:39:30;;;;;;;16.58;10.95;;;11.50;99.90;;;;;;5084394;28;20096;-79
2023/10/29 02:41:56;;;;;;;20.30;11.20;;;11.60;99.90;;;;;;5098137;28;20036;-79
2023/10/29 02:44:22;;;;;;;15.70;10.07;;;11.50;99.90;;;;;;5094744;28;20050;-78
2023/10/29 02:46:48;;;;;;;14.35;9.52;;;11.60;99.90;;;;;;5083480;28;20047;-79
2023/10/29 02:49:14;;;;;;;12.98;8.70;;;11.50;99.90;;;;;;5102365;28;20044;-78
2023/10/29 02:51:40;;;;;;;14.75;9.10;;;11.50;99.90;;;;;;5080155;28;20494;-79
2023/10/29 02:54:06;;;;;;;14.48;10.15;;;11.70;99.90;;;;;;5096790;28;20046;-78
2023/10/29 02:56:32;;;;;;;9.55;7.28;;;11.60;99.90;;;;;;5091616;28;20035;-79
2023/10/29 02:58:58;;;;;;;16.25;9.55;;;11.60;99.90;;;;;;5075474;28;20401;-77
2023/10/29 03:01:24;;;;;;;17.25;10.38;;;11.60;99.90;;;;;;5089064;28;20047;-77
2023/10/29 03:03:50;;;;;;;13.25;6.72;;;11.60;99.90;;;;;;5095104;28;20044;-77
2023/10/29 03:06:15;;;;;;;13.38;7.40;;;11.60;99.90;;;;;;5077161;28;20048;-78
2023/10/29 03:08:41;;;;;;;11.25;5.80;;;11.50;99.90;;;;;;5092491;28;20153;-78
2023/10/29 03:11:11;;;;;;;10.32;5.55;;;11.60;99.90;;;;;;5074808;28;20043;-78
2023/10/29 03:13:37;;;;;;;7.43;4.90;;;11.60;99.90;;;;;;5074696;28;20511;-78
2023/10/29 03:16:03;;;;;;;12.95;6.88;;;11.60;99.90;;;;;;5097894;28;20115;-77
2023/10/29 03:18:29;;;;;;;10.95;5.63;;;11.60;99.90;;;;;;5074871;28;20048;-78
2023/10/29 03:20:55;;;;;;;11.15;6.35;;;11.60;99.90;;;;;;5074482;28;20097;-78
2023/10/29 03:23:20;;;;;;;12.18;5.53;;;11.60;99.90;;;;;;5075579;28;20040;-77
2023/10/29 03:25:47;;;;;;;13.25;5.88;;;11.60;99.90;;;;;;5093583;28;20056;-78
2023/10/29 03:28:12;;;;;;;10.40;4.60;;;11.60;99.90;;;;;;5095420;28;20114;-77
2023/10/29 03:30:38;;;;;;;11.32;5.47;;;11.70;99.90;;;;;;5094690;28;20400;-78
2023/10/29 03:33:04;;;;;;;9.30;4.70;;;11.60;99.90;;;;;;5128593;27;20073;-78
2023/10/29 03:35:30;;;;;;;11.90;4.97;;;11.60;99.90;;;;;;5068231;28;20083;-78
2023/10/29 03:37:56;;;;;;;11.27;5.30;;;11.50;99.90;;;;;;5073617;28;20409;-77
2023/10/29 03:40:21;;;;;;;6.78;3.50;;;11.60;99.90;;;;;;5074326;28;20037;-78
2023/10/29 03:42:47;;;;;;;11.30;4.20;;;11.70;99.90;;;;;;5095111;28;20044;-77
2023/10/29 03:45:13;;;;;;;9.77;4.20;;;11.60;99.90;;;;;;5101832;28;20119;-77
2023/10/29 03:47:41;;;;;;;7.20;3.67;;;11.60;99.90;;;;;;5089131;28;20036;-78
2023/10/29 03:50:07;;;;;;;10.82;4.13;;;11.50;99.90;;;;;;5080461;28;20068;-77
2023/10/29 03:52:32;;;;;;;7.35;3.53;;;11.60;99.90;;;;;;5083881;28;20117;-78
2023/10/29 03:54:58;;;;;;;8.52;3.53;;;11.50;99.90;;;;;;5080535;28;20527;-78
2023/10/29 03:57:23;;;;;;;6.18;2.85;;;11.60;99.90;;;;;;5090991;28;20033;-78
2023/10/29 03:59:49;;;;;;;6.55;2.75;;;11.50;99.90;;;;;;5092463;28;20040;-78
2023/10/29 04:02:15;;;;;;;4.88;2.80;;;11.50;99.90;;;;;;5090002;28;20113;-78
2023/10/29 04:04:40;;;;;;;7.47;3.90;;;11.50;99.90;;;;;;5075700;28;20044;-78
2023/10/29 04:07:06;;;;;;;7.03;3.00;;;11.60;99.90;;;;;;5094260;28;20086;-78
2023/10/29 04:09:31;;;;;;;5.40;2.70;;;11.70;99.90;;;;;;5077015;28;20101;-78
2023/10/29 04:11:59;;;;;;;5.03;2.80;;;11.70;99.90;;;;;;5085731;28;20040;-77
2023/10/29 04:14:24;;;;;;;8.50;2.90;;;11.70;99.90;;;;;;5092648;28;20120;-77
2023/10/29 04:16:50;;;;;;;7.75;2.60;;;11.70;99.90;;;;;;5090269;28;20079;-77
2023/10/29 04:19:16;;;;;;;7.18;2.72;;;11.80;99.90;;;;;;5093175;28;20040;-77
2023/10/29 04:21:41;;;;;;;5.47;2.38;;;11.90;99.90;;;;;;5076934;28;20048;-80
2023/10/29 04:24:07;;;;;;;6.68;2.90;;;11.80;99.90;;;;;;5076424;28;20036;-77
2023/10/29 04:26:33;;;;;;;4.80;2.25;;;11.80;99.90;;;;;;5083654;28;20043;-79
2023/10/29 04:28:59;;;;;;;7.68;2.67;;;12.00;99.90;;;;;;5095869;28;20047;-77
2023/10/29 04:31:24;;;;;;;10.27;3.28;;;11.80;99.90;;;;;;5090968;28;20146;-77
2023/10/29 04:33:51;;;;;;;4.45;2.28;;;11.80;99.90;;;;;;5093835;28;20028;-78
2023/10/29 04:36:22;;;;;;;7.55;2.72;;;11.80;99.90;;;;;;5078457;28;20040;-77
2023/10/29 04:38:48;;;;;;;7.68;2.85;;;11.90;99.90;;;;;;5080503;28;20047;-77
2023/10/29 04:41:14;;;;;;;6.13;2.70;;;12.00;99.90;;;;;;5096449;28;20432;-77
2023/10/29 04:43:43;;;;;;;7.68;2.25;;;11.90;99.90;;;;;;5097684;28;20054;-77
2023/10/29 04:46:10;;;;;;;8.85;2.70;;;11.90;99.90;;;;;;5080042;28;20404;-78
2023/10/29 04:48:37;;;;;;;5.53;2.17;;;12.00;99.90;;;;;;5089242;28;20123;-78
2023/10/29 04:51:06;;;;;;;5.65;1.52;;;11.90;99.90;;;;;;5077546;28;20079;-78
2023/10/29 04:53:32;;;;;;;5.30;1.70;;;11.80;99.90;;;;;;5079181;28;20040;-78
2023/10/29 04:55:57;;;;;;;4.80;1.60;;;11.80;99.90;;;;;;5088621;28;20088;-77
2023/10/29 04:58:24;;;;;;;3.38;1.60;;;11.90;99.90;;;;;;5113065;28;20044;-78
2023/10/29 05:00:50;;;;;;;3.90;1.30;;;11.60;99.90;;;;;;5111646;28;20051;-78
2023/10/29 05:03:16;;;;;;;3.70;1.50;;;12.20;99.90;;;;;;5113781;28;20401;-78
2023/10/29 05:05:41;;;;;;;5.13;1.48;;;11.60;99.90;;;;;;5092724;28;20408;-77
2023/10/29 05:08:07;;;;;;;3.67;1.15;;;11.60;99.90;;;;;;5085093;28;20037;-77
2023/10/29 05:10:33;;;;;;;1.80;1.20;;;11.50;99.90;;;;;;5086184;28;20048;-78
2023/10/29 05:13:02;;;;;;;5.03;1.40;;;11.60;99.90;;;;;;5093329;28;20047;-78
2023/10/29 05:15:28;;;;;;;6.07;1.85;;;11.50;99.90;;;;;;5084837;28;20046;-78
2023/10/29 05:17:54;;;;;;;8.05;2.17;;;12.10;99.90;;;;;;5077233;28;20101;-76
2023/10/29 05:20:20;;;;;;;4.10;1.50;;;11.50;99.90;;;;;;5094868;28;20040;-78
2023/10/29 05:22:45;;;;;;;3.92;1.48;;;11.90;99.90;;;;;;5097090;28;20043;-76
2023/10/29 05:25:11;;;;;;;5.03;1.90;;;11.40;99.90;;;;;;5097313;28;20047;-77
2023/10/29 05:27:37;;;;;;;3.28;1.55;;;11.40;99.90;;;;;;5097150;28;20078;-78
2023/10/29 05:30:05;;;;;;;3.75;1.63;;;11.30;99.90;;;;;;5078377;28;20044;-78
2023/10/29 05:32:33;;;;;;;6.70;2.05;;;11.30;99.90;;;;;;5087763;28;20438;-79
2023/10/29 05:34:58;;;;;;;4.10;1.80;;;11.30;99.90;;;;;;5095384;28;20048;-78
2023/10/29 05:37:24;;;;;;;6.28;2.13;;;11.30;99.90;;;;;;5107504;28;20140;-78
2023/10/29 05:39:51;;;;;;;4.15;1.77;;;11.60;99.90;;;;;;5084612;28;20044;-79
2023/10/29 05:42:17;;;;;;;4.65;1.85;;;11.50;99.90;;;;;;5076242;28;20051;-79
2023/10/29 05:44:43;;;;;;;4.53;1.95;;;11.20;99.90;;;;;;5078836;28;20458;-78
2023/10/29 05:47:09;;;;;;;8.23;2.00;;;11.10;99.90;;;;;;5084660;28;20040;-77
2023/10/29 05:49:34;;;;;;;3.40;2.10;;;11.10;99.90;;;;;;5097048;28;20075;-78
2023/10/29 05:52:00;;;;;;;9.20;1.83;;;11.10;99.90;;;;;;5095139;28;20044;-78
2023/10/29 05:54:26;;;;;;;4.80;1.58;;;11.10;99.90;;;;;;5094365;28;20047;-78
2023/10/29 05:56:52;;;;;;;5.28;1.92;;;11.20;99.90;;;;;;5075645;28;20097;-78
2023/10/29 05:59:21;;;;;;;8.30;1.90;;;11.10;99.90;;;;;;5090375;28;20123;-78
2023/10/29 06:01:46;;;;;;;3.15;1.42;;;11.20;99.90;;;;;;5080199;28;20204;-78
2023/10/29 06:04:12;;;;;;;6.65;1.58;;;11.10;99.90;;;;;;5081028;28;20052;-78
2023/10/29 06:06:38;;;;;;;4.30;1.65;;;11.10;99.90;;;;;;5105205;28;20386;-78
2023/10/29 06:09:05;;;;;;;5.30;1.65;;;11.70;99.90;;;;;;5093759;28;20044;-78
2023/10/29 06:11:31;;;;;;;4.82;1.60;;;11.10;99.90;;;;;;5093164;28;20044;-78
2023/10/29 06:14:01;;;;;;;7.03;1.73;;;11.50;99.90;;;;;;5098177;28;20042;-79
2023/10/29 06:16:27;;;;;;;7.45;2.22;;;11.30;99.90;;;;;;5080748;28;20142;-78
2023/10/29 06:18:53;;;;;;;9.20;1.90;;;11.30;99.90;;;;;;5100415;28;20047;-76
2023/10/29 06:21:20;;;;;;;5.38;1.98;;;11.20;99.90;;;;;;5090945;28;20092;-76
2023/10/29 06:23:46;;;;;;;8.52;2.25;;;11.30;99.90;;;;;;5086812;28;20056;-78
2023/10/29 06:26:12;;;;;;;8.10;2.10;;;11.30;99.90;;;;;;5077779;28;20092;-76
2023/10/29 06:28:38;;;;;;;9.30;3.60;;;11.30;99.90;;;;;;5086815;28;20072;-76
2023/10/29 06:31:04;;;;;;;10.05;3.08;;;11.40;99.90;;;;;;5111628;28;20091;-77
2023/10/29 06:33:29;;;;;;;5.93;2.17;;;11.30;99.90;;;;;;5094481;28;20044;-77
2023/10/29 06:35:57;;;;;;;6.40;2.65;;;11.40;99.90;;;;;;5076911;28;20176;-78
2023/10/29 06:38:24;;;;;;;6.72;2.42;;;11.40;99.90;;;;;;5077591;28;20512;-77
2023/10/29 06:40:50;;;;;;;8.80;2.50;;;11.40;99.90;;;;;;5074417;28;20044;-77
2023/10/29 06:43:15;;;;;;;13.80;2.92;;;11.40;99.90;;;;;;5075043;28;20082;-78
2023/10/29 06:45:41;;;;;;;6.47;2.20;;;11.40;99.90;;;;;;5090650;28;20040;-77
2023/10/29 06:48:07;;;;;;;5.10;1.95;;;11.30;99.90;;;;;;5094727;28;20315;-77
2023/10/29 06:50:32;;;;;;;4.40;1.67;;;11.40;99.90;;;;;;5086781;28;20031;-79
2023/10/29 06:52:58;;;;;;;12.77;2.67;;;11.30;99.90;;;;;;5104188;28;20040;-77
2023/10/29 06:55:24;;;;;;;6.43;1.98;;;11.40;99.90;;;;;;5091875;28;20040;-76
2023/10/29 06:57:49;;;;;;;5.00;1.80;;;11.30;99.90;;;;;;5076409;28;20033;-77
2023/10/29 07:00:18;;;;;;;5.90;1.90;;;11.40;99.90;;;;;;5101930;28;20045;-77
2023/10/29 07:02:44;;;;;;;9.70;2.72;;;11.30;99.90;;;;;;5098051;28;20036;-78
2023/10/29 07:05:09;;;;;;;7.22;2.40;;;11.40;99.90;;;;;;5092033;28;20053;-78
2023/10/29 07:07:35;;;;;;;11.30;2.20;;;11.40;99.90;;;;;;5113236;28;20044;-78
2023/10/29 07:10:03;;;;;;;7.57;2.00;;;11.40;99.90;;;;;;5094771;28;20040;-77
2023/10/29 07:12:32;;;;;;;6.85;2.20;;;11.50;99.90;;;;;;5077355;28;20052;-78
2023/10/29 07:15:01;;;;;;;6.32;1.95;;;11.50;99.90;;;;;;5100395;28;20045;-78
2023/10/29 07:17:27;;;;;;;7.35;2.05;;;11.60;99.90;;;;;;5084181;28;20494;-78
2023/10/29 07:19:52;;;;;;;7.75;1.80;;;11.50;99.90;;;;;;5093388;28;20067;-79
2023/10/29 07:22:18;;;;;;;5.95;2.00;;;11.50;99.90;;;;;;5087437;28;20046;-79
2023/10/29 07:24:51;;;;;;;12.18;2.15;;;11.50;99.90;;;;;;5095119;28;20094;-79
2023/10/29 07:27:17;;;;;;;5.90;1.60;;;11.60;99.90;;;;;;5098328;28;20066;-79
2023/10/29 07:29:42;;;;;;;5.85;1.85;;;11.60;99.90;;;;;;5081720;28;20044;-78
2023/10/29 07:32:08;;;;;;;5.68;1.60;;;11.60;99.90;;;;;;5082567;28;20072;-78
2023/10/29 07:34:34;;;;;;;7.20;1.92;;;11.60;99.90;;;;;;5086701;28;20142;-78
2023/10/29 07:37:03;;;;;;;6.93;1.75;;;11.70;99.90;;;;;;5085769;28;20047;-80
2023/10/29 07:39:28;;;;;;;6.70;1.95;;;11.70;99.90;;;;;;5080696;28;20079;-79
2023/10/29 07:41:54;;;;;;;7.93;1.88;;;11.70;99.90;;;;;;5089245;28;20390;-78
2023/10/29 07:44:22;;;;;;;7.63;1.60;;;11.70;99.90;;;;;;5077505;28;20501;-78
2023/10/29 07:46:50;;;;;;;6.63;1.87;;;11.70;99.90;;;;;;5087468;28;20040;-79
2023/10/29 07:49:16;;;;;;;6.90;1.70;;;11.70;99.90;;;;;;5097996;28;20282;-79
2023/10/29 07:51:43;;;;;;;6.00;2.03;;;11.80;99.90;;;;;;5088022;28;20040;-79
2023/10/29 07:54:08;;;;;;;11.35;2.08;;;11.80;99.90;;;;;;5080611;28;20102;-79
2023/10/29 07:56:34;;;;;;;5.63;1.52;;;11.80;99.90;;;;;;5089174;28;20517;-78
2023/10/29 07:59:00;;;;;;;6.85;1.52;;;11.90;99.90;;;;;;5100041;28;20051;-78
2023/10/29 08:01:26;;;;;;;7.10;1.60;;;12.10;99.90;;;;;;5103844;28;20485;-79
2023/10/29 08:03:52;;;;;;;5.10;1.63;;;12.00;99.90;;;;;;5086970;28;20063;-78
2023/10/29 08:06:21;;;;;;;4.82;1.67;;;12.00;99.90;;;;;;5089529;28;20066;-78
2023/10/29 08:08:47;;;;;;;8.10;2.30;;;12.80;99.90;;;;;;5104025;28;20539;-78
2023/10/29 08:11:27;;;;;;;5.28;1.58;;;12.00;99.90;;;;;;5105489;28;20040;-78
2023/10/29 08:13:53;;;;;;;6.68;1.98;;;12.10;99.90;;;;;;5107611;28;20055;-78
2023/10/29 08:16:19;;;;;;;6.72;1.83;;;12.10;99.90;;;;;;5115764;28;20036;-77
2023/10/29 08:18:47;;;;;;;9.70;1.95;;;12.10;99.90;;;;;;5128779;28;20044;-79
2023/10/29 08:21:13;;;;;;;7.05;2.38;;;12.20;99.90;;;;;;5098494;28;20040;-78
2023/10/29 08:23:39;;;;;;;5.82;1.67;;;12.20;99.90;;;;;;5107378;28;20048;-78
2023/10/29 08:26:04;;;;;;;11.32;1.95;;;12.30;99.90;;;;;;5117110;28;20048;-78
2023/10/29 08:28:30;;;;;;;5.00;1.80;;;12.40;99.90;;;;;;5115720;28;20055;-78
2023/10/29 08:31:02;;;;;;;9.05;1.90;;;13.20;99.90;;;;;;5110832;28;20040;-79
2023/10/29 08:33:27;;;;;;;9.65;1.77;;;12.60;99.90;;;;;;5111560;28;20043;-78
2023/10/29 08:35:54;;;;;;;7.75;2.10;;;12.60;99.90;;;;;;5107519;28;20044;-79
2023/10/29 08:38:20;;;;;;;7.13;1.80;;;13.40;99.90;;;;;;5111945;28;20110;-79
2023/10/29 08:40:46;;;;;;;6.35;1.70;;;12.80;99.90;;;;;;5093668;28;20063;-78
2023/10/29 08:43:13;;;;;;;6.55;1.67;;;12.90;99.90;;;;;;5104339;28;20044;-79
2023/10/29 08:45:38;;;;;;;7.93;1.60;;;13.00;99.90;;;;;;5097213;28;20479;-77
2023/10/29 08:48:04;;;;;;;6.95;1.85;;;13.10;99.90;;;;;;5095513;28;20044;-77
2023/10/29 08:50:30;;;;;;;9.68;2.58;;;13.20;99.90;;;;;;5102957;28;20032;-77
2023/10/29 08:52:56;;;;;;;6.88;1.60;;;13.30;99.90;;;;;;5098159;28;20127;-77
2023/10/29 08:55:23;;;;;;;8.65;1.92;;;13.20;99.90;;;;;;5110923;28;20048;-79
2023/10/29 08:57:49;;;;;;;8.32;2.10;;;13.10;99.90;;;;;;5103112;28;20118;-80
2023/10/29 09:00:15;;;;;;;6.88;1.70;;;13.00;99.90;;;;;;5097604;28;20059;-80
2023/10/29 09:02:41;;;;;;;8.23;2.00;;;12.90;99.90;;;;;;5079246;28;20052;-78
2023/10/29 09:05:08;;;;;;;10.55;2.30;;;13.40;99.90;;;;;;5093623;28;20511;-78
2023/10/29 09:07:34;;;;;;;6.80;2.22;;;12.80;99.90;;;;;;5113313;28;20040;-77
2023/10/29 09:10:00;;;;;;;7.25;2.22;;;12.90;99.90;;;;;;5086813;28;20047;-78
2023/10/29 09:12:27;;;;;;;7.68;1.65;;;12.80;99.90;;;;;;5100309;28;20036;-78
2023/10/29 09:14:53;;;;;;;11.95;1.90;;;12.90;99.90;;;;;;5080931;28;20032;-79
2023/10/29 09:17:18;;;;;;;8.32;2.00;;;12.80;99.90;;;;;;5082062;28;20107;-77
2023/10/29 09:19:44;;;;;;;7.78;2.10;;;12.80;99.90;;;;;;5104075;28;20040;-78
2023/10/29 09:22:10;;;;;;;5.20;1.55;;;12.70;99.90;;;;;;5079990;28;20485;-78
2023/10/29 09:24:36;;;;;;;4.60;1.63;;;12.70;99.90;;;;;;5096694;28;20066;-78
2023/10/29 09:27:02;;;;;;;5.80;1.67;;;12.80;99.90;;;;;;5090154;28;20044;-77
2023/10/29 09:29:31;;;;;;;7.43;1.92;;;12.70;99.90;;;;;;5089335;28;20393;-79
2023/10/29 09:31:56;;;;;;;9.18;1.70;;;13.30;99.90;;;;;;5087907;28;20115;-78
2023/10/29 09:34:22;;;;;;;6.20;1.75;;;12.90;99.90;;;;;;5099358;28;20036;-78
2023/10/29 09:36:47;;;;;;;7.05;1.77;;;13.00;99.90;;;;;;5096065;28;20044;-79
2023/10/29 09:39:13;;;;;;;7.72;2.03;;;13.20;99.90;;;;;;5108992;28;20405;-78
2023/10/29 09:41:41;;;;;;;5.90;1.95;;;13.20;99.90;;;;;;5109218;28;20036;-79
2023/10/29 09:44:10;;;;;;;;;;;13.30;99.90;;;;;;5074070;28;20471;-80
2023/10/29 09:46:45;;;;;;;6.65;1.98;;;13.20;99.90;;;;;;5088900;28;19935;-78
2023/10/29 09:49:13;;;;;;;8.55;1.70;;;13.30;99.90;;;;;;5078444;28;20047;-77
2023/10/29 09:51:42;;;;;;;6.45;1.80;;;13.30;99.90;;;;;;5092456;28;20040;-78
2023/10/29 09:54:08;;;;;;;6.93;1.80;;;13.40;99.90;;;;;;5079285;28;20048;-78
2023/10/29 09:56:37;;;;;;;4.93;1.63;;;13.60;99.90;;;;;;5094253;28;20087;-79
2023/10/29 09:59:05;;;;;;;10.55;1.80;;;14.00;99.90;;;;;;5091055;28;20043;-78
2023/10/29 10:01:30;;;;;;;7.07;2.20;;;14.40;99.90;;;;;;5079342;28;20055;-78
2023/10/29 10:03:59;;;;;;;9.95;1.75;;;15.00;99.90;;;;;;5089231;28;21954;-78
2023/10/29 10:06:30;;;;;;;5.65;2.00;;;15.10;99.90;;;;;;5099800;28;20048;-77
2023/10/29 10:08:59;;;;;;;7.03;1.90;;;14.90;99.90;;;;;;5097543;28;20115;-78
2023/10/29 10:11:24;;;;;;;7.10;1.90;;;14.70;99.90;;;;;;5077150;28;20064;-77
2023/10/29 10:13:50;;;;;;;7.45;1.80;;;14.50;99.90;;;;;;5095207;28;20044;-77
2023/10/29 10:16:20;;;;;;;10.07;2.63;;;14.30;99.90;;;;;;5088403;28;20036;-78
2023/10/29 10:18:57;;;;;;;7.72;1.92;;;14.30;99.90;;;;;;5089023;28;20052;-78
2023/10/29 10:21:40;;;;;;;8.20;1.92;;;14.10;99.90;;;;;;5088470;28;20049;-77
2023/10/29 10:24:09;;;;;;;5.55;1.70;;;14.30;99.90;;;;;;5073964;28;20105;-78
2023/10/29 10:26:36;;;;;;;7.60;2.58;;;14.30;99.90;;;;;;5089055;28;20488;-79
2023/10/29 10:29:07;;;;;;;6.38;1.75;;;14.20;99.90;;;;;;5091007;28;20135;-79
2023/10/29 10:31:36;;;;;;;8.27;1.95;;;14.50;99.90;;;;;;5085266;28;20044;-79
2023/10/29 10:34:16;;;;;;;10.15;1.83;;;14.30;99.90;;;;;;5077814;28;20057;-78
2023/10/29 10:36:43;;;;;;;9.70;2.00;;;14.30;99.90;;;;;;5086092;28;20052;-77
2023/10/29 10:39:11;;;;;;;5.85;2.00;;;14.40;99.90;;;;;;5082054;28;20063;-77
2023/10/29 10:41:45;;;;;;;6.10;2.00;;;14.40;99.90;;;;;;5076551;28;20409;-76
2023/10/29 10:44:20;;;;;;;6.72;1.67;;;14.10;99.90;;;;;;5087937;28;20036;-77
2023/10/29 10:46:54;;;;;;;5.78;1.75;;;14.10;99.90;;;;;;5087369;28;20052;-79
2023/10/29 10:49:22;;;;;;;5.78;2.33;;;14.10;99.90;;;;;;5077420;28;20440;-78
2023/10/29 10:51:52;;;;;;;6.75;1.80;;;13.80;99.90;;;;;;5081634;28;20036;-79
2023/10/29 10:54:18;;;;;;;6.72;1.85;;;14.10;99.90;;;;;;5102337;28;20080;-78
2023/10/29 10:56:45;;;;;;;6.20;2.17;;;14.20;99.90;;;;;;5090598;28;20032;-78
2023/10/29 10:59:10;;;;;;;11.30;2.13;;;14.20;99.90;;;;;;5094617;28;20085;-78
2023/10/29 11:01:40;;;;;;;7.07;1.77;;;14.20;99.90;;;;;;5087790;28;20040;-78
2023/10/29 11:04:10;;;;;;;9.93;2.22;;;14.30;99.90;;;;;;5091109;28;20044;-78
2023/10/29 11:06:36;;;;;;;8.60;1.90;;;14.30;99.90;;;;;;5069720;28;20098;-78
2023/10/29 11:09:12;;;;;;;8.77;2.08;;;14.40;99.90;;;;;;5083295;28;20043;-77
2023/10/29 11:12:00;;;;;;;10.13;2.38;;;14.40;99.90;;;;;;5097385;28;20062;-79
2023/10/29 11:14:26;;;;;;;9.77;2.35;;;14.40;99.90;;;;;;5084603;28;20044;-78
2023/10/29 11:16:57;;;;;;;8.30;2.13;;;14.50;99.90;;;;;;5072292;28;20065;-78
2023/10/29 11:19:46;;;;;;;13.60;2.30;;;14.50;99.90;;;;;;5081394;28;20049;-77
2023/10/29 11:22:18;;;;;;;8.13;2.20;;;14.40;99.90;;;;;;5092008;28;20044;-78
2023/10/29 11:25:04;;;;;;;9.57;2.13;;;14.40;99.90;;;;;;5092514;28;20066;-78
2023/10/29 11:27:36;;;;;;;9.73;2.30;;;14.30;99.90;;;;;;5093354;28;20070;-77
2023/10/29 11:30:13;;;;;;;8.95;2.47;;;14.20;99.90;;;;;;5095522;28;20393;-78
2023/10/29 11:32:43;;;;;;;9.57;2.90;;;14.20;99.90;;;;;;5087004;28;20048;-77
2023/10/29 11:35:14;;;;;;;12.38;2.60;;;14.10;99.90;;;;;;5076819;28;20056;-79
2023/10/29 11:37:41;;;;;;;11.07;2.53;;;14.10;99.90;;;;;;5094444;28;20055;-77
2023/10/29 11:40:24;;;;;;;9.48;2.30;;;14.20;99.90;;;;;;5102527;28;20501;-78
2023/10/29 11:42:51;;;;;;;9.82;2.45;;;14.30;99.90;;;;;;5092929;28;20040;-78
2023/10/29 11:45:27;;;;;;;7.85;2.33;;;14.30;99.90;;;;;;5085451;28;20072;-78
2023/10/29 11:48:11;;;;;;;10.63;2.72;;;14.30;99.90;;;;;;5087166;28;20147;-78
2023/10/29 11:50:37;;;;;;;11.52;2.60;;;14.30;99.90;;;;;;5089410;28;20047;-78
2023/10/29 11:53:03;;;;;;;10.48;2.78;;;14.20;99.90;;;;;;5084318;28;20170;-77
2023/10/29 11:55:37;;;;;;;11.18;3.28;;;14.10;99.90;;;;;;5096285;28;20085;-78
2023/10/29 11:58:03;;;;;;;8.80;2.95;;;14.10;99.90;;;;;;5086380;28;20058;-78
2023/10/29 12:00:38;;;;;;;10.05;2.13;;;14.00;99.90;;;;;;5093399;28;20466;-79
2023/10/29 12:03:04;;;;;;;12.05;2.58;;;13.90;99.90;;;;;;5082169;28;20048;-77
2023/10/29 12:05:31;;;;;;;10.18;2.53;;;13.90;99.90;;;;;;5116223;28;20045;-79
2023/10/29 12:08:04;;;;;;;10.02;2.63;;;13.90;99.90;;;;;;5103291;28;20053;-79
2023/10/29 12:10:39;;;;;;;10.18;2.78;;;13.90;99.90;;;;;;5095217;28;20076;-81
2023/10/29 12:13:05;;;;;;;10.82;2.70;;;13.80;99.90;;;;;;5080141;28;20457;-78
2023/10/29 12:15:31;;;;;;;9.85;2.42;;;13.90;99.90;;;;;;5098629;28;20040;-79
2023/10/29 12:17:58;;;;;;;10.98;2.90;;;14.30;99.90;;;;;;5090688;28;20051;-79
2023/10/29 12:20:26;;;;;;;9.90;2.72;;;13.80;99.90;;;;;;5093363;28;20576;-81
2023/10/29 12:23:02;;;;;;;10.85;2.75;;;13.70;99.90;;;;;;5081360;28;20040;-78
2023/10/29 12:25:29;;;;;;;13.05;2.38;;;13.70;99.90;;;;;;5096423;28;20485;-81
2023/10/29 12:27:55;;;;;;;8.25;2.30;;;13.80;99.90;;;;;;5092569;28;20045;-80
2023/10/29 12:30:37;;;;;;;12.85;2.83;;;14.00;99.90;;;;;;5061944;28;20076;-80
2023/10/29 12:33:23;;;;;;;7.82;2.20;;;13.70;99.90;;;;;;5096140;28;20127;-79
2023/10/29 12:35:52;;;;;;;12.05;3.20;;;13.60;99.90;;;;;;5093819;28;20071;-79
2023/10/29 12:38:19;;;;;;;12.23;2.85;;;14.30;99.90;;;;;;5078880;28;20047;-79
2023/10/29 12:41:14;;;;;;;9.90;2.53;;;13.60;99.90;;;;;;5081984;28;20588;-80